Time;durP1;ratioP1;P1;durP2;ratioP2;P2;SDS_P1;SDS_P2;PMS_P1;PMS_P2;Temp;Humidity;BMP_temperature;BMP_pressure;BME280_temperature;BME280_humidity;BME280_pressure;Samples;Min_cycle;Max_cycle;Signal;HPM_P1;HPM_P2
2021/11/07 05:00:45;;;;;;;51.33;34.10;;;;;;;12.68;100.00;95993.50;5909237;23;20058;-74
2021/11/07 05:03:11;;;;;;;51.47;36.10;;;;;;;12.57;100.00;96019.75;4947854;28;20504;-74
2021/11/07 05:05:37;;;;;;;52.33;34.40;;;;;;;12.51;100.00;96030.78;4929765;28;20027;-74
2021/11/07 05:08:03;;;;;;;48.88;34.08;;;;;;;12.36;100.00;96033.13;4943871;28;20067;-75
2021/11/07 05:10:28;;;;;;;43.80;32.35;;;;;;;12.39;100.00;96042.41;4933421;28;20056;-74
2021/11/07 05:12:55;;;;;;;49.38;33.72;;;;;;;12.49;100.00;96048.31;4927962;28;20086;-75
2021/11/07 05:15:20;;;;;;;45.72;32.17;;;;;;;12.70;100.00;96048.72;4921858;28;20042;-74
2021/11/07 05:17:46;;;;;;;39.38;28.13;;;;;;;12.91;100.00;96025.72;4964550;28;20401;-75
2021/11/07 05:20:12;;;;;;;41.47;27.63;;;;;;;12.96;100.00;96002.66;4953592;28;20038;-74
2021/11/07 05:22:37;;;;;;;44.85;28.80;;;;;;;12.91;100.00;95996.28;4950654;28;20031;-74
2021/11/07 05:25:07;;;;;;;43.00;30.33;;;;;;;12.82;100.00;96015.44;4952929;28;20566;-76
2021/11/07 05:27:33;;;;;;;40.40;28.33;;;;;;;12.77;100.00;96012.50;4944031;28;20027;-75
2021/11/07 05:30:00;;;;;;;46.35;31.52;;;;;;;12.79;100.00;96024.38;4980264;28;20419;-75
2021/11/07 05:32:25;;;;;;;46.05;29.23;;;;;;;12.80;100.00;96041.63;4967657;28;20078;-75
2021/11/07 05:34:51;;;;;;;54.63;31.45;;;;;;;12.73;100.00;96047.59;4952116;28;20031;-74
2021/11/07 05:37:17;;;;;;;51.70;31.38;;;;;;;12.77;100.00;96051.50;4953669;28;20468;-74
2021/11/07 05:39:42;;;;;;;52.53;33.72;;;;;;;12.72;100.00;96045.94;4973295;28;20037;-75
2021/11/07 05:42:10;;;;;;;46.08;30.92;;;;;;;12.72;100.00;96038.97;4969075;28;20471;-75
2021/11/07 05:44:36;;;;;;;46.90;31.38;;;;;;;12.67;100.00;96047.25;4953651;28;20101;-75
2021/11/07 05:47:01;;;;;;;46.83;31.35;;;;;;;12.69;100.00;96040.09;4935829;28;20472;-75
2021/11/07 05:49:27;;;;;;;44.65;30.13;;;;;;;12.69;100.00;96052.28;4937437;28;20393;-75
2021/11/07 05:51:52;;;;;;;39.42;29.42;;;;;;;12.71;100.00;96052.13;4952018;28;20471;-75
2021/11/07 05:54:18;;;;;;;43.78;30.92;;;;;;;12.67;100.00;96049.84;4936919;28;20022;-75
2021/11/07 05:56:43;;;;;;;46.20;31.67;;;;;;;12.69;100.00;96047.91;4936300;28;20038;-74
2021/11/07 05:59:09;;;;;;;40.28;29.40;;;;;;;12.77;100.00;96049.72;4952820;28;20583;-74
2021/11/07 06:01:35;;;;;;;44.03;31.20;;;;;;;12.67;100.00;96047.25;4936866;28;20043;-74
2021/11/07 06:04:04;;;;;;;51.90;30.08;;;;;;;12.74;100.00;96055.25;4938034;28;20155;-74
2021/11/07 06:06:30;;;;;;;50.88;32.30;;;;;;;12.72;100.00;96051.97;4948091;28;20031;-75
2021/11/07 06:08:55;;;;;;;52.15;31.85;;;;;;;12.74;100.00;96059.63;4961586;28;20026;-76
2021/11/07 06:11:21;;;;;;;54.92;33.35;;;;;;;12.69;100.00;96062.69;4962839;28;20507;-75
2021/11/07 06:13:47;;;;;;;51.28;31.90;;;;;;;12.74;100.00;96075.22;4950539;28;20030;-75
2021/11/07 06:16:14;;;;;;;53.45;32.28;;;;;;;12.82;100.00;96078.66;4949182;28;20078;-75
2021/11/07 06:18:39;;;;;;;49.33;31.08;;;;;;;12.85;100.00;96067.94;4950549;28;20041;-75
2021/11/07 06:21:05;;;;;;;51.70;32.40;;;;;;;12.96;100.00;96064.25;4984304;28;20018;-75
2021/11/07 06:23:32;;;;;;;47.10;29.95;;;;;;;13.00;100.00;96050.75;4953352;28;20042;-75
2021/11/07 06:25:57;;;;;;;48.25;29.58;;;;;;;12.97;100.00;96058.88;4951477;28;20381;-75
2021/11/07 06:28:23;;;;;;;43.38;29.08;;;;;;;13.00;100.00;96047.38;4952260;28;20033;-75
2021/11/07 06:30:49;;;;;;;45.10;27.00;;;;;;;12.94;100.00;96032.41;4951214;28;20038;-75
2021/11/07 06:49:19;;;;;;;39.10;27.33;;;;;;;12.90;100.00;96037.09;5107788;27;20387;-76
2021/11/07 06:51:45;;;;;;;38.17;24.98;;;;;;;12.93;100.00;96035.97;5071897;28;20032;-76
2021/11/07 06:54:11;;;;;;;36.92;25.98;;;;;;;13.04;100.00;96007.06;5087844;28;20507;-76
2021/11/07 06:56:37;;;;;;;37.30;26.60;;;;;;;12.93;100.00;95991.75;5071596;28;20032;-76
2021/11/07 06:59:03;;;;;;;35.80;24.52;;;;;;;13.06;100.00;95995.53;5086321;28;20485;-77
2021/11/07 07:01:28;;;;;;;37.35;25.38;;;;;;;12.96;100.00;95968.84;5062033;28;20028;-75
2021/11/07 07:03:54;;;;;;;35.97;24.88;;;;;;;13.29;100.00;95956.75;5066598;28;20027;-77
2021/11/07 07:06:19;;;;;;;32.42;22.77;;;;;;;13.18;100.00;95921.44;5050854;28;20029;-76
2021/11/07 07:08:57;;;;;;;33.28;23.55;;;;;;;13.29;100.00;95920.31;5101401;28;20455;-76
2021/11/07 07:11:28;;;;;;;31.95;22.75;;;;;;;13.20;100.00;95919.47;5089601;28;20031;-76
2021/11/07 07:24:25;;;;;;;31.08;23.20;;;;;;;13.07;100.00;95916.53;5089694;28;20027;-75
2021/11/07 07:30:27;;;;;;;33.85;24.75;;;;;;;13.31;100.00;95896.72;5104414;28;20043;-77
2021/11/07 07:34:43;;;;;;;33.45;23.30;;;;;;;13.39;100.00;95855.88;5055360;28;20056;-74
2021/11/07 07:37:08;;;;;;;27.77;21.92;;;;;;;13.38;100.00;95835.25;5087909;28;20032;-74
2021/11/07 07:39:33;;;;;;;33.17;22.33;;;;;;;13.45;100.00;95847.41;5063959;28;20505;-74
2021/11/07 07:41:59;;;;;;;29.08;21.20;;;;;;;13.51;100.00;95843.34;5074150;28;20125;-74
2021/11/07 07:44:25;;;;;;;29.00;21.05;;;;;;;13.48;100.00;95835.88;5066845;28;20036;-75
2021/11/07 07:46:50;;;;;;;30.27;21.85;;;;;;;13.82;100.00;95818.19;5092397;28;20028;-74
2021/11/07 07:49:17;;;;;;;30.50;20.92;;;;;;;14.02;100.00;95789.94;5062596;28;20041;-75
2021/11/07 07:51:43;;;;;;;24.38;19.25;;;;;;;14.35;100.00;95754.94;5055385;28;20089;-75
2021/11/07 07:54:09;;;;;;;24.50;19.25;;;;;;;16.21;94.44;95683.16;5064642;28;20050;-74
2021/11/07 07:56:35;;;;;;;20.73;18.10;;;;;;;15.43;97.03;95688.31;5056581;28;20545;-75
2021/11/07 07:59:01;;;;;;;25.63;19.55;;;;;;;13.94;100.00;95728.28;5073366;28;20043;-75
2021/11/07 08:01:27;;;;;;;22.98;18.58;;;;;;;13.93;100.00;95733.66;5066781;28;20082;-75
2021/11/07 08:03:53;;;;;;;22.45;19.13;;;;;;;14.03;100.00;95737.66;5068494;28;20025;-75
2021/11/07 08:06:18;;;;;;;25.75;21.70;;;;;;;13.64;100.00;95755.13;5044818;28;20031;-75
2021/11/07 08:08:44;;;;;;;26.52;20.15;;;;;;;13.99;100.00;95736.41;5049726;28;20131;-75
2021/11/07 08:11:09;;;;;;;24.58;20.17;;;;;;;14.13;100.00;95750.47;5067959;28;20032;-76
2021/11/07 08:13:35;;;;;;;28.13;21.17;;;;;;;13.70;100.00;95780.50;5073996;28;20056;-75
2021/11/07 08:16:01;;;;;;;29.33;21.40;;;;;;;14.11;100.00;95773.28;5067231;28;20032;-75
2021/11/07 08:18:26;;;;;;;30.25;21.67;;;;;;;13.99;100.00;95748.59;5066563;28;20358;-74
2021/11/07 08:20:52;;;;;;;28.75;23.17;;;;;;;14.02;100.00;95756.91;5066821;28;20021;-74
2021/11/07 08:23:21;;;;;;;28.33;22.60;;;;;;;14.74;100.00;95733.91;5067724;28;20087;-74
2021/11/07 08:25:47;;;;;;;23.30;20.58;;;;;;;15.43;99.17;95696.16;5067262;28;20090;-74
2021/11/07 08:28:14;;;;;;;25.05;20.58;;;;;;;15.05;100.00;95705.09;5066744;28;20028;-75
2021/11/07 08:30:41;;;;;;;26.30;20.45;;;;;;;15.66;98.37;95688.22;5069740;28;20055;-75
2021/11/07 08:33:07;;;;;;;24.38;20.15;;;;;;;15.51;96.84;95669.97;5055820;28;20020;-75
2021/11/07 08:35:36;;;;;;;23.33;20.33;;;;;;;14.24;100.00;95706.59;5053436;28;20111;-76
2021/11/07 08:38:07;;;;;;;29.23;21.52;;;;;;;14.09;100.00;95720.56;5074718;28;20063;-76
2021/11/07 08:40:39;;;;;;;24.95;20.17;;;;;;;14.56;100.00;95705.53;5076565;28;20093;-76
2021/11/07 09:02:31;;;;;;;19.30;17.30;;;;;;;15.24;96.00;95658.38;5073302;28;20393;-77
2021/11/07 09:07:24;;;;;;;20.10;18.00;;;;;;;14.81;99.90;95658.38;5089361;28;20040;-75
2021/11/07 09:09:58;;;;;;;21.20;19.00;;;;;;;14.66;99.97;95647.94;5054423;28;20025;-76
2021/11/07 09:12:25;;;;;;;24.23;18.95;;;;;;;14.76;100.00;95645.88;5087222;28;20021;-75
2021/11/07 09:14:50;;;;;;;19.58;17.55;;;;;;;15.23;98.44;95643.69;5070378;28;20031;-76
2021/11/07 09:17:15;;;;;;;20.10;17.98;;;;;;;15.19;97.19;95628.56;5067216;28;20449;-76
2021/11/07 09:19:42;;;;;;;21.08;16.98;;;;;;;16.25;91.97;95594.72;5059464;28;20425;-76
2021/11/07 09:25:09;;;;;;;17.20;15.40;;;;;;;18.88;79.72;95565.63;5061450;28;20532;-77
2021/11/07 09:30:07;;;;;;;16.88;15.23;;;;;;;17.63;83.00;95556.19;5066914;28;20052;-78
2021/11/07 09:32:43;;;;;;;17.45;15.73;;;;;;;18.02;81.29;95532.63;5035213;28;20119;-77
2021/11/07 09:40:06;;;;;;;16.33;14.13;;;;;;;16.89;86.04;95522.09;5050192;28;20039;-77
2021/11/07 09:42:57;;;;;;;16.90;15.17;;;;;;;17.34;84.08;95524.06;5050201;28;20032;-78
2021/11/07 09:47:56;;;;;;;16.58;15.07;;;;;;;17.77;79.69;95497.56;5067996;28;20036;-77
2021/11/07 09:50:22;;;;;;;21.90;15.70;;;;;;;16.86;87.22;95504.97;5086886;28;20062;-76
2021/11/07 09:52:49;;;;;;;18.98;17.08;;;;;;;18.10;78.93;95498.34;5068265;28;20028;-77
2021/11/07 09:55:17;;;;;;;17.55;15.70;;;;;;;17.70;80.37;95489.69;5055912;28;20025;-77
2021/11/07 09:57:43;;;;;;;16.60;15.02;;;;;;;19.12;73.28;95474.84;5064837;28;20032;-76
2021/11/07 10:00:18;;;;;;;19.67;16.02;;;;;;;17.52;81.68;95465.06;5049639;28;20482;-77
2021/11/07 10:02:44;;;;;;;16.27;14.68;;;;;;;18.65;77.21;95456.88;5050607;28;20033;-79
2021/11/07 10:05:11;;;;;;;17.98;15.63;;;;;;;16.46;86.91;95444.81;5048760;28;20029;-77
2021/11/07 10:07:39;;;;;;;20.98;16.58;;;;;;;16.08;89.18;95441.81;5065385;28;20031;-79
2021/11/07 10:10:18;;;;;;;24.83;17.25;;;;;;;16.68;86.96;95431.47;5048366;28;20032;-80
2021/11/07 10:12:47;;;;;;;16.50;14.77;;;;;;;17.08;86.48;95432.34;5051372;28;20033;-77
2021/11/07 10:15:26;;;;;;;20.70;15.77;;;;;;;17.50;86.41;95427.78;5056166;28;20657;-77
2021/11/07 10:17:58;;;;;;;17.58;15.77;;;;;;;17.08;86.13;95423.72;5058409;28;20415;-76
2021/11/07 10:23:02;;;;;;;31.02;20.73;;;;;;;17.08;87.42;95413.25;5057796;28;20033;-77
2021/11/07 10:25:32;;;;;;;15.98;14.00;;;;;;;17.00;85.65;95426.50;5056761;28;20031;-75
2021/11/07 10:27:59;;;;;;;24.70;19.55;;;;;;;17.02;84.29;95421.88;5071002;28;20029;-78
2021/11/07 10:30:26;;;;;;;78.63;43.05;;;;;;;17.21;84.45;95421.91;5057483;28;20099;-77
2021/11/07 10:33:00;;;;;;;19.23;15.43;;;;;;;18.23;81.58;95418.84;5042474;28;20070;-77
2021/11/07 10:41:24;;;;;;;21.20;17.00;;;;;;;16.39;88.18;95408.19;5066726;28;20052;-76
2021/11/07 10:43:54;;;;;;;16.98;15.23;;;;;;;17.35;85.18;95405.22;5063409;28;20040;-75
2021/11/07 10:52:26;;;;;;;17.08;15.07;;;;;;;16.93;84.66;95391.66;5059677;28;20503;-81
2021/11/07 10:54:53;;;;;;;16.77;15.02;;;;;;;16.93;84.85;95383.81;5056767;28;20386;-91
2021/11/07 10:57:22;;;;;;;17.13;15.60;;;;;;;16.73;85.65;95389.00;5045863;28;20044;-86
2021/11/07 11:00:18;;;;;;;16.73;15.05;;;;;;;16.50;87.30;95394.56;5035413;28;20043;-92
2021/11/07 11:02:54;;;;;;;16.50;14.95;;;;;;;17.03;85.72;95390.28;5072660;28;20039;-79
2021/11/07 11:05:23;;;;;;;17.50;15.70;;;;;;;17.03;85.02;95376.38;5058809;28;20421;-89
2021/11/07 11:07:56;;;;;;;17.67;15.40;;;;;;;17.45;85.00;95381.25;5054573;28;20089;-84
2021/11/07 11:10:25;;;;;;;21.65;17.60;;;;;;;16.37;88.82;95383.25;5081450;28;20063;-78
2021/11/07 11:13:14;;;;;;;19.77;16.95;;;;;;;16.62;87.71;95374.72;5070061;28;20032;-83
2021/11/07 11:15:49;;;;;;;20.08;18.23;;;;;;;16.47;87.30;95373.22;5081746;28;20046;-80
2021/11/07 11:23:59;;;;;;;20.38;17.67;;;;;;;16.46;86.91;95354.13;5068791;28;20401;-78
2021/11/07 11:31:40;;;;;;;21.15;17.33;;;;;;;16.44;87.56;95337.03;5075653;28;20050;-79
2021/11/07 11:34:11;;;;;;;17.67;15.95;;;;;;;16.48;87.22;95336.41;5082617;28;20052;-77
2021/11/07 11:36:45;;;;;;;23.17;18.45;;;;;;;16.82;86.06;95340.75;5071004;28;20028;-83
2021/11/07 11:39:35;;;;;;;24.65;20.17;;;;;;;17.01;85.49;95339.97;5070888;28;20032;-84
2021/11/07 11:42:13;;;;;;;18.20;16.17;;;;;;;16.79;85.74;95326.22;5073907;28;20532;-86
2021/11/07 11:44:42;;;;;;;20.67;17.85;;;;;;;16.67;85.73;95319.16;5076568;28;20044;-86
2021/11/07 11:47:40;;;;;;;18.40;15.35;;;;;;;17.32;84.15;95316.59;5041066;28;20160;-84
2021/11/07 11:50:21;;;;;;;18.35;16.38;;;;;;;17.65;83.15;95318.38;5044345;28;20105;-86
2021/11/07 11:53:06;;;;;;;17.48;15.73;;;;;;;17.20;84.32;95307.75;5071650;28;20090;-84
2021/11/07 12:03:35;;;;;;;19.02;14.30;;;;;;;16.79;85.47;95286.97;5074107;28;20204;-81
2021/11/07 12:06:27;;;;;;;19.55;17.02;;;;;;;16.66;86.38;95294.81;5046702;23;20057;-85
2021/11/07 12:09:28;;;;;;;17.45;15.73;;;;;;;16.76;85.97;95284.00;5007775;28;20029;-77
2021/11/07 12:14:49;;;;;;;17.65;16.08;;;;;;;16.50;85.76;95263.81;5006687;28;20041;-81
2021/11/07 12:17:17;;;;;;;20.05;16.42;;;;;;;16.99;84.75;95284.38;4985573;28;20049;-80
2021/11/07 12:19:43;;;;;;;19.92;17.67;;;;;;;16.51;86.31;95281.09;4996029;28;20073;-79
2021/11/07 12:22:10;;;;;;;20.80;18.23;;;;;;;16.57;86.54;95279.53;5020019;28;20026;-76
2021/11/07 12:24:54;;;;;;;18.00;16.10;;;;;;;16.98;84.96;95272.31;5008958;28;20431;-79
2021/11/07 12:27:28;;;;;;;19.15;17.15;;;;;;;16.86;85.73;95276.53;5007237;28;20585;-85
2021/11/07 12:30:15;;;;;;;18.92;16.92;;;;;;;17.06;84.86;95276.53;5003888;28;20048;-80
2021/11/07 12:32:42;;;;;;;18.85;16.90;;;;;;;16.77;85.77;95265.47;5002793;28;20037;-81
2021/11/07 12:35:23;;;;;;;22.83;18.38;;;;;;;16.54;86.61;95266.81;4983095;28;20038;-80
2021/11/07 12:40:59;;;;;;;19.05;15.00;;;;;;;17.10;83.48;95257.59;5000676;28;20488;-79
2021/11/07 12:43:25;;;;;;;17.05;15.05;;;;;;;16.85;84.40;95246.16;4998873;28;20026;-86
2021/11/07 12:45:53;;;;;;;24.45;17.15;;;;;;;16.74;84.08;95246.75;4998491;28;20038;-83
2021/11/07 12:48:42;;;;;;;17.42;15.77;;;;;;;17.00;84.23;95240.69;4985734;28;20133;-80
2021/11/07 12:51:10;;;;;;;18.45;16.17;;;;;;;16.64;84.17;95228.03;4983022;28;20088;-86
2021/11/07 12:53:52;;;;;;;17.02;15.20;;;;;;;17.25;82.87;95247.72;4989615;28;20049;-87
2021/11/07 12:56:47;;;;;;;19.42;16.65;;;;;;;16.97;82.72;95247.16;5003335;28;20188;-86
2021/11/07 12:59:20;;;;;;;19.05;15.82;;;;;;;16.80;83.19;95235.47;4998594;28;20111;-81
2021/11/07 13:02:05;;;;;;;18.33;15.00;;;;;;;16.87;83.97;95238.91;4975019;28;20042;-80
2021/11/07 13:04:37;;;;;;;17.88;15.93;;;;;;;16.80;84.55;95217.16;5001898;28;20076;-87
2021/11/07 13:07:04;;;;;;;19.05;17.08;;;;;;;17.08;83.79;95225.56;4984233;28;20092;-83
2021/11/07 13:09:39;;;;;;;19.40;17.33;;;;;;;17.01;83.67;95219.56;4995348;28;20114;-81
2021/11/07 13:12:19;;;;;;;18.70;16.80;;;;;;;16.85;85.28;95217.38;4979772;28;20544;-80
2021/11/07 13:34:31;;;;;;;18.08;15.40;;;;;;;17.00;82.44;95222.38;5008253;28;20073;-86
2021/11/07 13:37:00;;;;;;;16.73;15.02;;;;;;;16.96;82.56;95216.75;4989859;28;20597;-85
2021/11/07 13:39:43;;;;;;;20.80;15.15;;;;;;;16.79;83.60;95205.09;5007834;28;20088;-87
2021/11/07 13:42:11;;;;;;;18.05;16.38;;;;;;;16.62;84.08;95203.91;4990005;28;20018;-87
2021/11/07 13:45:01;;;;;;;19.17;16.83;;;;;;;16.38;85.74;95207.06;4999051;28;20029;-83
2021/11/07 13:47:33;;;;;;;20.02;18.08;;;;;;;16.26;86.66;95204.25;5005868;28;20040;-81
2021/11/07 13:50:01;;;;;;;22.17;17.30;;;;;;;16.47;85.16;95201.44;4992364;28;20108;-84
2021/11/07 13:52:32;;;;;;;17.92;16.02;;;;;;;16.62;84.50;95209.13;4992834;28;20040;-84
2021/11/07 13:54:58;;;;;;;19.05;16.38;;;;;;;16.55;84.53;95192.63;5026205;28;20030;-86
2021/11/07 13:57:29;;;;;;;17.17;15.50;;;;;;;16.57;84.74;95199.25;5006629;28;20037;-86
2021/11/07 13:59:54;;;;;;;17.67;15.85;;;;;;;16.71;83.73;95186.97;5005518;28;20033;-86
2021/11/07 14:02:21;;;;;;;21.13;15.98;;;;;;;16.62;84.30;95189.00;4990754;28;20037;-88
2021/11/07 14:04:48;;;;;;;20.25;16.35;;;;;;;16.67;83.62;95181.34;4989202;28;20473;-85
2021/11/07 14:07:24;;;;;;;17.98;15.77;;;;;;;16.85;83.03;95199.88;4990128;28;20033;-84
2021/11/07 14:10:01;;;;;;;21.48;16.02;;;;;;;16.67;83.42;95180.53;5008090;28;20042;-81
2021/11/07 14:12:34;;;;;;;17.50;15.60;;;;;;;16.68;83.84;95185.59;4989670;28;20033;-83
2021/11/07 14:15:22;;;;;;;17.38;15.27;;;;;;;16.82;83.38;95195.00;5006657;28;20115;-80
2021/11/07 14:17:48;;;;;;;21.52;15.82;;;;;;;16.84;83.54;95179.94;5001933;28;20030;-81
2021/11/07 14:20:32;;;;;;;20.95;16.55;;;;;;;16.70;83.69;95178.31;4990775;28;20495;-81
2021/11/07 14:23:07;;;;;;;36.47;25.77;;;;;;;16.62;84.52;95182.97;5006042;28;20045;-81
2021/11/07 14:25:32;;;;;;;25.90;18.48;;;;;;;16.45;84.94;95168.66;4989539;28;20584;-81
2021/11/07 14:28:08;;;;;;;18.15;15.50;;;;;;;16.54;84.97;95186.56;5005846;28;20026;-81
2021/11/07 14:30:39;;;;;;;17.23;15.50;;;;;;;16.50;85.31;95192.41;4989402;28;20092;-83
2021/11/07 14:33:12;;;;;;;22.70;17.23;;;;;;;16.35;85.71;95179.50;5006689;28;20030;-85
2021/11/07 14:35:40;;;;;;;21.55;15.65;;;;;;;16.32;85.87;95177.28;5006089;28;20033;-82
2021/11/07 14:38:11;;;;;;;21.75;15.63;;;;;;;16.25;86.55;95177.28;5005173;28;20534;-82
2021/11/07 14:41:07;;;;;;;24.52;16.67;;;;;;;16.10;87.41;95183.72;5010568;28;20029;-85
2021/11/07 14:49:03;;;;;;;28.27;23.27;;;;;;;15.53;90.53;95187.59;5025852;28;20029;-82
2021/11/07 14:56:47;;;;;;;24.10;20.80;;;;;;;14.95;93.63;95191.47;4990181;28;20468;-84
2021/11/07 14:59:46;;;;;;;27.20;20.50;;;;;;;14.76;94.74;95179.91;5016086;28;20034;-80
2021/11/07 15:02:50;;;;;;;27.63;22.95;;;;;;;14.69;96.16;95196.50;5009786;28;20182;-80
2021/11/07 15:23:37;;;;;;;31.08;25.58;;;;;;;14.22;98.50;95176.25;5021162;28;20023;-79
2021/11/07 15:26:20;;;;;;;33.40;27.20;;;;;;;14.17;99.60;95194.22;4995111;28;20026;-79
2021/11/07 15:28:54;;;;;;;30.25;24.17;;;;;;;14.18;99.06;95190.66;4994197;28;20444;-78
2021/11/07 15:31:20;;;;;;;29.38;24.63;;;;;;;14.30;98.47;95189.16;5008325;28;20088;-79
2021/11/07 15:33:45;;;;;;;32.08;25.98;;;;;;;14.17;98.77;95187.22;4980207;28;20026;-78
2021/11/07 15:36:11;;;;;;;34.03;27.48;;;;;;;14.13;98.77;95177.34;4966823;28;20026;-78
2021/11/07 15:38:36;;;;;;;33.72;26.90;;;;;;;14.01;100.00;95200.50;4981571;28;20089;-79
2021/11/07 15:41:11;;;;;;;42.45;28.77;;;;;;;13.93;100.00;95199.81;4979393;28;20034;-78
2021/11/07 15:43:37;;;;;;;37.88;28.50;;;;;;;13.90;100.00;95198.38;4989400;28;20412;-79
2021/11/07 15:46:11;;;;;;;32.53;28.63;;;;;;;13.91;100.00;95207.00;4998195;28;20026;-79
2021/11/07 15:48:40;;;;;;;40.05;29.65;;;;;;;13.88;100.00;95209.97;5000121;28;20668;-79
2021/11/07 16:01:55;;;;;;;34.90;27.25;;;;;;;13.81;100.00;95202.09;4962694;28;20057;-79
2021/11/07 16:07:09;;;;;;;33.40;26.13;;;;;;;13.83;100.00;95210.53;4976456;28;20427;-78
2021/11/07 16:17:14;;;;;;;34.03;27.13;;;;;;;13.79;100.00;95216.28;4972554;28;20030;-79
2021/11/07 16:19:42;;;;;;;37.13;26.95;;;;;;;13.67;100.00;95192.53;4958765;28;20484;-78
2021/11/07 16:22:08;;;;;;;34.28;26.58;;;;;;;13.74;100.00;95203.84;4973907;28;20022;-79
2021/11/07 16:24:33;;;;;;;33.72;24.15;;;;;;;13.80;100.00;95191.88;4974961;28;20030;-77
2021/11/07 16:27:04;;;;;;;29.65;23.95;;;;;;;13.98;100.00;95193.06;4974065;28;20106;-78
2021/11/07 16:29:30;;;;;;;26.10;23.10;;;;;;;14.01;100.00;95190.09;4989509;28;20064;-78
2021/11/07 16:32:10;;;;;;;28.02;22.17;;;;;;;14.02;98.96;95170.88;4957996;28;20026;-78
2021/11/07 16:34:41;;;;;;;26.13;22.10;;;;;;;14.05;98.85;95173.09;4973200;28;20031;-79
2021/11/07 16:37:12;;;;;;;27.60;23.75;;;;;;;14.14;98.24;95171.16;4987655;28;20030;-78
2021/11/07 16:39:47;;;;;;;31.83;21.13;;;;;;;14.47;95.87;95189.72;4991662;28;20511;-78
2021/11/07 16:42:15;;;;;;;30.85;22.00;;;;;;;14.16;97.67;95188.22;4975407;28;20022;-80
2021/11/07 16:44:41;;;;;;;25.20;18.80;;;;;;;14.20;97.55;95180.84;4975312;28;20033;-79
2021/11/07 16:47:12;;;;;;;21.73;19.40;;;;;;;14.27;96.88;95185.13;4987650;28;20485;-78
2021/11/07 16:49:37;;;;;;;23.85;18.17;;;;;;;14.32;96.96;95188.97;4959244;28;20037;-78
2021/11/07 16:54:34;;;;;;;23.35;17.92;;;;;;;14.32;96.16;95173.34;4988552;28;20092;-78
2021/11/07 16:56:59;;;;;;;23.83;17.88;;;;;;;14.25;96.53;95165.47;4980356;28;20038;-78
2021/11/07 17:04:41;;;;;;;27.05;22.27;;;;;;;13.80;99.42;95169.25;4971265;28;20515;-77
2021/11/07 17:09:41;;;;;;;29.20;20.58;;;;;;;13.80;99.54;95166.66;4971628;28;20113;-77
2021/11/07 17:12:15;;;;;;;21.05;15.95;;;;;;;14.03;97.61;95162.03;4988801;28;20034;-78
2021/11/07 17:14:42;;;;;;;20.67;16.58;;;;;;;14.44;94.02;95148.41;4972898;28;20046;-78
2021/11/07 17:17:15;;;;;;;22.42;17.05;;;;;;;14.31;94.12;95133.44;4971487;28;20019;-78
2021/11/07 17:22:21;;;;;;;20.50;15.02;;;;;;;14.82;89.90;95149.66;4988054;28;20050;-77
2021/11/07 17:25:00;;;;;;;22.23;15.50;;;;;;;14.73;90.46;95159.44;4972738;28;20038;-79
2021/11/07 17:27:34;;;;;;;24.42;17.10;;;;;;;14.54;91.60;95156.69;4972860;28;20022;-76
2021/11/07 17:30:07;;;;;;;23.25;17.00;;;;;;;14.61;91.06;95152.31;4955236;28;20034;-76
2021/11/07 17:32:44;;;;;;;26.83;18.55;;;;;;;14.44;92.36;95137.97;4987772;28;20113;-77
2021/11/07 17:35:48;;;;;;;17.83;15.30;;;;;;;14.56;90.88;95131.25;4968770;28;20023;-80
2021/11/07 17:41:22;;;;;;;16.38;14.52;;;;;;;14.38;92.24;95123.91;4967882;28;20062;-79
2021/11/07 17:56:50;;;;;;;19.58;13.43;;;;;;;14.74;88.77;95113.28;4987706;28;20521;-79
2021/11/07 17:59:17;;;;;;;18.20;14.85;;;;;;;14.33;91.19;95094.16;4986785;28;20022;-79
2021/11/07 18:01:45;;;;;;;18.70;14.95;;;;;;;14.29;92.19;95093.72;4985940;28;20030;-81
2021/11/07 18:04:11;;;;;;;19.75;14.95;;;;;;;14.33;91.26;95083.72;4977105;28;20014;-77
2021/11/07 18:06:42;;;;;;;20.20;15.80;;;;;;;14.15;93.45;95102.44;4954643;28;20022;-79
2021/11/07 18:09:12;;;;;;;18.60;15.07;;;;;;;14.14;92.53;95091.22;4970689;28;20072;-79
2021/11/07 18:11:41;;;;;;;;;;;;;;;14.24;92.68;95103.91;4988515;28;20030;-81
2021/11/07 18:14:08;;;;;;;17.13;15.07;;;;;;;14.19;93.03;95094.06;4985033;28;19918;-78
2021/11/07 18:16:33;;;;;;;23.45;15.63;;;;;;;14.15;92.62;95077.22;4969776;28;20581;-76
2021/11/07 18:18:59;;;;;;;16.80;14.07;;;;;;;14.36;91.07;95093.81;4953143;28;20030;-79
2021/11/07 18:21:32;;;;;;;20.60;15.45;;;;;;;14.10;92.53;95084.78;4969535;28;20053;-76
2021/11/07 18:24:11;;;;;;;17.73;14.93;;;;;;;14.01;93.24;95085.91;4984628;28;20065;-76
2021/11/07 18:26:37;;;;;;;18.67;15.02;;;;;;;14.03;94.07;95096.94;4981672;28;20408;-77
2021/11/07 18:29:02;;;;;;;22.88;16.58;;;;;;;13.88;93.82;95085.81;4986164;28;20041;-76
2021/11/07 18:31:28;;;;;;;24.52;15.43;;;;;;;13.82;94.38;95090.94;4984591;28;20435;-79
2021/11/07 18:33:53;;;;;;;28.60;16.30;;;;;;;13.72;94.58;95088.66;4969090;28;20080;-77
2021/11/07 18:36:19;;;;;;;22.05;17.77;;;;;;;13.43;96.13;95096.56;4984478;28;20022;-78
2021/11/07 18:38:47;;;;;;;24.05;18.70;;;;;;;12.75;100.00;95092.53;4984287;28;20057;-76
2021/11/07 18:41:12;;;;;;;20.77;18.58;;;;;;;12.66;100.00;95110.03;4966078;28;20034;-76
2021/11/07 18:43:38;;;;;;;21.30;18.60;;;;;;;12.64;100.00;95112.00;4966854;28;20412;-77
2021/11/07 18:46:03;;;;;;;27.65;18.73;;;;;;;12.48;100.00;95112.19;4950143;28;20062;-77
2021/11/07 18:48:29;;;;;;;26.48;20.60;;;;;;;12.40;100.00;95109.66;4980525;28;20027;-76
2021/11/07 18:50:54;;;;;;;25.50;19.02;;;;;;;12.58;100.00;95112.72;4985530;28;20046;-77
2021/11/07 18:53:20;;;;;;;20.63;17.73;;;;;;;12.47;100.00;95113.16;4967634;28;20041;-77
2021/11/07 18:55:46;;;;;;;21.73;17.88;;;;;;;12.89;100.00;95109.13;4969313;28;20031;-77
2021/11/07 18:58:13;;;;;;;27.75;19.52;;;;;;;12.71;100.00;95122.50;4967532;28;20114;-77
2021/11/07 19:00:39;;;;;;;21.85;17.35;;;;;;;12.74;100.00;95110.94;4986333;28;20476;-78
2021/11/07 19:03:05;;;;;;;28.63;18.45;;;;;;;12.41;100.00;95113.06;4968778;28;20480;-78
2021/11/07 19:05:31;;;;;;;24.75;19.10;;;;;;;11.87;100.00;95102.84;4968494;28;20085;-76
2021/11/07 19:07:56;;;;;;;22.70;18.63;;;;;;;11.73;100.00;95098.41;4984779;28;20022;-76
2021/11/07 19:10:23;;;;;;;22.15;18.25;;;;;;;11.66;100.00;95105.25;4968158;28;20113;-77
2021/11/07 19:12:49;;;;;;;23.67;18.10;;;;;;;12.14;100.00;95119.63;4968946;28;20053;-77
2021/11/07 19:15:15;;;;;;;20.02;16.85;;;;;;;12.25;100.00;95118.41;4972198;28;20027;-77
2021/11/07 19:17:48;;;;;;;21.30;16.88;;;;;;;12.27;100.00;95108.66;4953124;28;20534;-77
2021/11/07 19:20:15;;;;;;;19.55;17.42;;;;;;;12.31;100.00;95109.91;4985554;28;20026;-79
2021/11/07 19:22:40;;;;;;;19.35;17.00;;;;;;;12.36;100.00;95102.41;4985660;28;20029;-77
2021/11/07 19:25:06;;;;;;;19.20;17.20;;;;;;;12.36;100.00;95097.22;4985600;28;20531;-78
2021/11/07 19:27:31;;;;;;;26.75;18.63;;;;;;;12.40;100.00;95091.47;4945275;28;20114;-77
2021/11/07 19:29:57;;;;;;;21.60;18.40;;;;;;;12.40;100.00;95088.88;4981809;28;20057;-76
2021/11/07 19:32:23;;;;;;;23.65;17.38;;;;;;;12.42;100.00;95091.31;4968312;28;20049;-76
2021/11/07 19:34:49;;;;;;;18.73;16.92;;;;;;;12.43;100.00;95088.50;4978509;28;20038;-78
2021/11/07 19:37:15;;;;;;;21.98;17.83;;;;;;;12.47;100.00;95084.59;4983191;28;20113;-78
2021/11/07 19:39:41;;;;;;;20.85;17.58;;;;;;;12.40;100.00;95104.47;4977324;28;20030;-77
2021/11/07 19:42:13;;;;;;;18.95;16.92;;;;;;;12.33;100.00;95097.56;4980939;28;20065;-78
2021/11/07 19:44:40;;;;;;;21.27;17.10;;;;;;;12.28;100.00;95092.91;4982525;28;20027;-78
2021/11/07 19:47:06;;;;;;;37.90;25.10;;;;;;;12.14;100.00;95101.47;4985690;28;20151;-78
2021/11/07 19:49:43;;;;;;;32.67;24.65;;;;;;;11.97;100.00;95087.03;4998497;28;20104;-77
2021/11/07 19:52:10;;;;;;;29.83;24.52;;;;;;;12.04;100.00;95090.56;5004392;28;20925;-78